createdAt,value
2023-01-27T00:03:21.224Z,202.82353
2023-01-27T00:08:22.341Z,202.82353
2023-01-27T00:13:23.309Z,203.91561
2023-01-27T00:18:24.218Z,202.82353
2023-01-27T00:23:25.151Z,202.82353
2023-01-27T00:28:26.041Z,202.82353
2023-01-27T00:33:26.966Z,202.82353
2023-01-27T00:38:27.896Z,202.82353
2023-01-27T00:43:28.816Z,205.01695
2023-01-27T00:48:29.795Z,205.01695
2023-01-27T00:53:30.724Z,205.01695
2023-01-27T00:58:31.647Z,203.91561
2023-01-27T01:03:32.561Z,203.91561
2023-01-27T01:08:33.494Z,203.91561
2023-01-27T01:13:34.463Z,202.82353
2023-01-27T01:18:35.365Z,202.82353
2023-01-27T01:23:36.272Z,203.91561
2023-01-27T01:28:37.202Z,203.91561
2023-01-27T01:33:38.086Z,203.91561
2023-01-27T01:38:39.004Z,203.91561
2023-01-27T01:43:39.957Z,205.01695
2023-01-27T01:48:40.841Z,205.01695
2023-01-27T01:53:41.794Z,205.01695
2023-01-27T02:03:44.644Z,206.12766
2023-01-27T02:08:45.599Z,205.01695
2023-01-27T02:13:46.571Z,205.01695
2023-01-27T02:18:47.486Z,203.91561
2023-01-27T02:23:48.408Z,202.82353
2023-01-27T02:28:49.292Z,202.82353
2023-01-27T02:33:50.275Z,202.82353
2023-01-27T02:38:51.199Z,202.82353
2023-01-27T02:43:52.458Z,201.74059
2023-01-27T02:48:53.370Z,201.74059
2023-01-27T02:53:54.283Z,201.74059
2023-01-27T02:58:55.241Z,202.82353
2023-01-27T03:03:56.159Z,201.74059
2023-01-27T03:08:57.382Z,201.74059
2023-01-27T03:13:58.363Z,200.66667
2023-01-27T03:18:59.276Z,200.66667
2023-01-27T03:24:00.356Z,200.66667
2023-01-27T03:29:01.415Z,199.60166
2023-01-27T03:34:02.462Z,199.60166
2023-01-27T03:39:03.372Z,199.60166
2023-01-27T03:44:04.314Z,200.66667
2023-01-27T03:49:05.274Z,200.66667
2023-01-27T03:54:06.290Z,200.66667
2023-01-27T03:59:07.608Z,200.66667
2023-01-27T04:04:08.852Z,200.66667
2023-01-27T04:09:09.925Z,199.60166
2023-01-27T04:14:10.932Z,198.54545
2023-01-27T04:19:11.853Z,197.49794
2023-01-27T04:24:12.838Z,197.49794
2023-01-27T04:29:13.884Z,197.49794
2023-01-27T04:34:14.821Z,198.54545
2023-01-27T04:39:15.742Z,198.54545
2023-01-27T04:44:16.826Z,198.54545
2023-01-27T04:49:17.774Z,198.54545
2023-01-27T04:54:18.723Z,198.54545
2023-01-27T04:59:19.637Z,197.49794
2023-01-27T05:04:20.566Z,196.45902
2023-01-27T05:09:21.522Z,196.45902
2023-01-27T05:14:22.486Z,196.45902
2023-01-27T05:19:23.409Z,195.42857
2023-01-27T05:24:24.425Z,194.4065
2023-01-27T05:29:25.406Z,195.42857
2023-01-27T05:34:26.323Z,195.42857
2023-01-27T05:39:27.267Z,195.42857
2023-01-27T05:44:28.273Z,187.47826
2023-01-27T05:49:29.209Z,188.44444
2023-01-27T05:54:30.153Z,191.38956
2023-01-27T05:59:31.074Z,192.3871
2023-01-27T06:04:32.009Z,189.41833
2023-01-27T06:09:32.899Z,191.38956
2023-01-27T06:14:33.830Z,191.38956
2023-01-27T06:19:34.741Z,192.3871
2023-01-27T06:24:35.715Z,193.39271
2023-01-27T06:29:36.643Z,193.39271
2023-01-27T06:34:37.582Z,192.3871
2023-01-27T06:39:38.482Z,192.3871
2023-01-27T06:44:39.400Z,192.3871
2023-01-27T06:49:40.374Z,192.3871
2023-01-27T06:54:41.263Z,191.38956
2023-01-27T06:59:42.207Z,191.38956
2023-01-27T07:04:43.091Z,192.3871
2023-01-27T07:09:52.369Z,192.3871
2023-01-27T07:14:53.851Z,191.38956
2023-01-27T07:19:54.854Z,191.38956
2023-01-27T07:24:55.794Z,191.38956
2023-01-27T07:29:57.157Z,190.4
2023-01-27T07:34:58.523Z,191.38956
2023-01-27T07:39:59.677Z,191.38956
2023-01-27T07:45:00.706Z,191.38956
2023-01-27T07:50:01.836Z,192.3871
2023-01-27T07:55:02.762Z,192.3871
2023-01-27T08:00:03.682Z,191.38956
2023-01-27T08:05:04.708Z,191.38956
2023-01-27T08:10:05.756Z,192.3871
2023-01-27T08:15:06.953Z,191.38956
2023-01-27T08:20:08.208Z,191.38956
2023-01-27T08:25:09.371Z,191.38956
2023-01-27T08:30:10.312Z,191.38956
2023-01-27T08:35:11.339Z,190.4
2023-01-27T08:40:12.518Z,191.38956
2023-01-27T08:45:13.563Z,192.3871
2023-01-27T08:50:14.729Z,192.3871
2023-01-27T08:55:15.793Z,193.39271
2023-01-27T09:00:16.994Z,193.39271
2023-01-27T09:05:18.046Z,193.39271
2023-01-27T09:10:18.950Z,196.45902
2023-01-27T09:15:19.970Z,195.42857
2023-01-27T09:20:20.910Z,194.4065
2023-01-27T09:25:21.862Z,193.39271
2023-01-27T09:30:22.838Z,194.4065
2023-01-27T09:35:23.794Z,195.42857
2023-01-27T09:40:24.732Z,194.4065
2023-01-27T09:45:25.725Z,198.54545
2023-01-27T09:50:26.729Z,196.45902
2023-01-27T09:55:27.703Z,198.54545
2023-01-27T10:00:28.636Z,198.54545
2023-01-27T10:05:29.578Z,199.60166
2023-01-27T10:10:30.507Z,199.60166
2023-01-27T10:15:31.480Z,199.60166
2023-01-27T10:20:32.387Z,198.54545
2023-01-27T10:25:33.321Z,199.60166
2023-01-27T10:30:34.337Z,198.54545
2023-01-27T10:35:35.323Z,200.66667
2023-01-27T10:40:36.266Z,200.66667
2023-01-27T10:45:37.355Z,199.60166
2023-01-27T10:50:38.327Z,199.60166
2023-01-27T10:55:39.264Z,202.82353
2023-01-27T11:01:17.726Z,202.82353
2023-01-27T11:06:20.723Z,200.66667
2023-01-27T11:11:21.620Z,198.54545
2023-01-27T11:16:22.615Z,200.66667
2023-01-27T11:21:23.589Z,198.54545
2023-01-27T11:26:24.501Z,197.49794
2023-01-27T11:31:25.498Z,199.60166
2023-01-27T11:36:26.477Z,200.66667
2023-01-27T11:41:27.427Z,200.66667
2023-01-27T11:46:28.377Z,202.82353
2023-01-27T11:51:29.271Z,205.01695
2023-01-27T11:56:30.290Z,202.82353
2023-01-27T12:01:31.230Z,202.82353
2023-01-27T12:06:32.136Z,203.91561
2023-01-27T12:11:33.069Z,201.74059
2023-01-27T12:16:34.043Z,200.66667
2023-01-27T12:21:34.998Z,201.74059
2023-01-27T12:26:35.932Z,200.66667
2023-01-27T12:31:37.008Z,207.24786
2023-01-27T12:36:38.224Z,202.82353
2023-01-27T12:41:39.147Z,203.91561
2023-01-27T12:46:40.186Z,201.74059
2023-01-27T12:51:41.272Z,203.91561
2023-01-27T12:56:42.213Z,207.24786
2023-01-27T13:01:43.144Z,208.37768
2023-01-27T13:06:44.086Z,209.51724
2023-01-27T13:11:45.026Z,208.37768
2023-01-27T13:16:45.967Z,212.99563
2023-01-27T13:21:46.880Z,212.99563
2023-01-27T13:26:47.924Z,209.51724
2023-01-27T13:31:49.227Z,210.66667
2023-01-27T13:36:50.194Z,207.24786
2023-01-27T13:41:51.117Z,205.01695
2023-01-27T13:46:52.137Z,203.91561
2023-01-27T13:51:53.035Z,208.37768
2023-01-27T13:56:53.958Z,206.12766
2023-01-27T14:01:54.966Z,206.12766
2023-01-27T14:06:55.982Z,206.12766
2023-01-27T14:11:56.927Z,208.37768
2023-01-27T14:16:57.861Z,209.51724
2023-01-27T14:21:58.976Z,208.37768
2023-01-27T14:27:00.070Z,207.24786
2023-01-27T14:32:01.187Z,206.12766
2023-01-27T14:37:02.172Z,206.12766
2023-01-27T14:42:03.227Z,207.24786
2023-01-27T14:47:04.204Z,206.12766
2023-01-27T14:52:05.213Z,205.01695
2023-01-27T14:57:06.155Z,205.01695
2023-01-27T15:02:07.266Z,206.12766
2023-01-27T15:07:08.465Z,207.24786
2023-01-27T15:12:09.629Z,206.12766
2023-01-27T15:17:10.587Z,206.12766
2023-01-27T15:22:11.588Z,206.12766
2023-01-27T15:27:12.533Z,206.12766
2023-01-27T15:32:13.621Z,208.37768
2023-01-27T15:37:14.616Z,210.66667
2023-01-27T15:42:15.629Z,209.51724
2023-01-27T15:47:16.583Z,210.66667
2023-01-27T15:52:17.480Z,210.66667
2023-01-27T15:57:18.514Z,209.51724
2023-01-27T16:02:19.477Z,209.51724
2023-01-27T16:07:20.543Z,211.82609
2023-01-27T16:12:21.505Z,211.82609
2023-01-27T16:17:22.434Z,215.36564
2023-01-27T16:22:23.329Z,215.36564
2023-01-27T16:27:24.237Z,214.17544
2023-01-27T16:32:25.137Z,215.36564
2023-01-27T16:37:26.084Z,215.36564
2023-01-27T16:42:27.018Z,216.56637
2023-01-27T16:47:28.018Z,216.56637
2023-01-27T16:52:40.849Z,215.36564
2023-01-27T16:57:42.992Z,217.77778
2023-01-27T17:02:43.970Z,219.0
2023-01-27T17:07:44.921Z,217.77778
2023-01-27T17:12:45.857Z,216.56637
2023-01-27T17:17:46.880Z,217.77778
2023-01-27T17:22:47.808Z,216.56637
2023-01-27T17:27:48.746Z,217.77778
2023-01-27T17:32:49.671Z,217.77778
2023-01-27T17:37:50.603Z,216.56637
2023-01-27T17:42:51.580Z,217.77778
2023-01-27T17:47:52.589Z,224.0
2023-01-27T17:52:53.527Z,221.47748
2023-01-27T17:57:54.488Z,219.0
2023-01-27T18:02:55.463Z,219.0
2023-01-27T18:07:56.510Z,217.77778
2023-01-27T18:12:57.519Z,219.0
2023-01-27T18:17:58.469Z,219.0
2023-01-27T18:22:59.402Z,217.77778
2023-01-27T18:28:00.349Z,217.77778
2023-01-27T18:33:01.371Z,216.56637
2023-01-27T18:38:02.369Z,214.17544
2023-01-27T18:43:03.266Z,212.99563
2023-01-27T18:48:04.188Z,214.17544
2023-01-27T18:53:05.103Z,214.17544
2023-01-27T18:58:06.035Z,214.17544
2023-01-27T19:03:07.229Z,214.17544
2023-01-27T19:08:08.490Z,214.17544
2023-01-27T19:13:09.595Z,214.17544
2023-01-27T19:18:10.522Z,212.99563
2023-01-27T19:23:11.445Z,215.36564
2023-01-27T19:28:12.369Z,215.36564
2023-01-27T19:33:13.345Z,215.36564
2023-01-27T19:38:14.288Z,216.56637
2023-01-27T19:43:15.237Z,216.56637
2023-01-27T19:48:16.177Z,216.56637
2023-01-27T19:53:17.084Z,217.77778
2023-01-27T19:58:18.120Z,217.77778
2023-01-27T20:03:19.046Z,217.77778
2023-01-27T20:08:20.031Z,220.23318
2023-01-27T20:13:21.020Z,219.0
2023-01-27T20:18:23.831Z,219.0
2023-01-27T20:23:24.894Z,217.77778
2023-01-27T20:28:25.814Z,216.56637
2023-01-27T20:33:26.815Z,219.0
2023-01-27T20:38:27.797Z,219.0
2023-01-27T20:43:35.204Z,217.77778
2023-01-27T20:48:36.822Z,217.77778
2023-01-27T20:53:37.796Z,220.23318
2023-01-27T20:58:38.741Z,221.47748
2023-01-27T21:03:39.690Z,222.73303
2023-01-27T21:08:40.620Z,222.73303
2023-01-27T21:13:41.636Z,222.73303
2023-01-27T21:18:42.577Z,224.0
2023-01-27T21:23:43.525Z,221.47748
2023-01-27T21:28:44.523Z,221.47748
2023-01-27T21:33:45.484Z,221.47748
2023-01-27T21:38:46.398Z,221.47748
2023-01-27T21:43:47.330Z,221.47748
2023-01-27T21:48:48.308Z,222.73303
2023-01-27T21:53:49.253Z,222.73303
2023-01-27T21:58:50.216Z,222.73303
2023-01-27T22:03:51.156Z,222.73303
2023-01-27T22:08:52.089Z,221.47748
2023-01-27T22:13:53.162Z,222.73303
2023-01-27T22:18:54.113Z,224.0
2023-01-27T22:23:55.132Z,224.0
2023-01-27T22:28:56.071Z,224.0
2023-01-27T22:33:57.040Z,224.0
2023-01-27T22:38:57.987Z,224.0
2023-01-27T22:43:58.929Z,225.27854
2023-01-27T22:48:59.877Z,225.27854
2023-01-27T22:54:00.828Z,226.56881
2023-01-27T22:59:01.880Z,226.56881
2023-01-27T23:04:02.815Z,227.87097
2023-01-27T23:09:03.909Z,226.56881
2023-01-27T23:14:04.895Z,225.27854
2023-01-27T23:19:05.851Z,225.27854
2023-01-27T23:24:07.816Z,225.27854
2023-01-27T23:29:22.881Z,226.56881
2023-01-27T23:34:25.116Z,225.27854
2023-01-27T23:39:26.214Z,225.27854
2023-01-27T23:44:27.522Z,225.27854
2023-01-27T23:49:28.441Z,225.27854
2023-01-27T23:54:29.353Z,225.27854
2023-01-27T23:59:30.266Z,225.27854
